createdAt,value
2018-09-20T00:00:16.325Z,1014.82
2018-09-20T00:01:16.423Z,1014.78
2018-09-20T00:02:16.283Z,1014.85
2018-09-20T00:03:16.439Z,1014.84
2018-09-20T00:04:16.241Z,1014.76
2018-09-20T00:05:16.350Z,1014.76
2018-09-20T00:06:16.197Z,1014.71
2018-09-20T00:07:16.363Z,1014.73
2018-09-20T00:08:16.164Z,1014.69
2018-09-20T00:09:16.275Z,1014.68
2018-09-20T00:10:16.121Z,1014.65
2018-09-20T00:11:16.290Z,1014.63
2018-09-20T00:12:16.076Z,1014.64
2018-09-20T00:13:16.199Z,1014.58
2018-09-20T00:14:16.037Z,1014.61
2018-09-20T00:15:16.215Z,1014.59
2018-09-20T00:16:15.996Z,1014.60
2018-09-20T00:17:16.127Z,1014.57
2018-09-20T00:18:15.953Z,1014.56
2018-09-20T00:19:16.038Z,1014.51
2018-09-20T00:20:15.912Z,1014.52
2018-09-20T00:21:16.051Z,1014.53
2018-09-20T00:22:15.871Z,1014.51
2018-09-20T00:23:15.963Z,1014.55
2018-09-20T00:24:15.830Z,1014.51
2018-09-20T00:25:15.873Z,1014.50
2018-09-20T00:26:15.788Z,1014.48
2018-09-20T00:27:15.890Z,1014.50
2018-09-20T00:28:15.745Z,1014.51
2018-09-20T00:29:15.801Z,1014.51
2018-09-20T00:30:15.710Z,1014.54
2018-09-20T00:31:15.713Z,1014.55
2018-09-20T00:32:15.661Z,1014.54
2018-09-20T00:33:15.725Z,1014.56
2018-09-20T00:34:15.627Z,1014.53
2018-09-20T00:35:15.642Z,1014.51
2018-09-20T00:36:15.583Z,1014.50
2018-09-20T00:37:15.658Z,1014.49
2018-09-20T00:38:15.541Z,1014.52
2018-09-20T00:39:15.567Z,1014.48
2018-09-20T00:40:15.498Z,1014.51
2018-09-20T00:41:15.554Z,1014.50
2018-09-20T00:42:15.457Z,1014.49
2018-09-20T00:43:15.506Z,1014.48
2018-09-20T00:44:15.414Z,1014.45
2018-09-20T00:45:15.530Z,1014.44
2018-09-20T00:46:15.376Z,1014.46
2018-09-20T00:47:15.419Z,1014.46
2018-09-20T00:48:15.332Z,1014.45
2018-09-20T00:49:15.432Z,1014.47
2018-09-20T00:50:15.290Z,1014.49
2018-09-20T00:51:15.312Z,1014.54
2018-09-20T00:52:15.251Z,1014.50
2018-09-20T00:53:15.361Z,1014.51
2018-09-20T00:54:15.207Z,1014.51
2018-09-20T00:55:15.277Z,1014.55
2018-09-20T00:56:15.165Z,1014.51
2018-09-20T00:57:15.290Z,1014.52
2018-09-20T00:58:15.123Z,1014.49
2018-09-20T00:59:15.198Z,1014.50
2018-09-20T01:00:15.084Z,1014.45
2018-09-20T01:01:15.211Z,1014.45
2018-09-20T01:02:15.042Z,1014.51
2018-09-20T01:03:15.122Z,1014.47
2018-09-20T01:04:14.997Z,1014.49
2018-09-20T01:05:15.136Z,1014.47
2018-09-20T01:06:14.956Z,1014.48
2018-09-20T01:07:15.053Z,1014.49
2018-09-20T01:08:14.915Z,1014.48
2018-09-20T01:09:14.960Z,1014.52
2018-09-20T01:10:14.874Z,1014.52
2018-09-20T01:11:14.971Z,1014.51
2018-09-20T01:12:14.834Z,1014.52
2018-09-20T01:13:14.886Z,1014.51
2018-09-20T01:14:14.791Z,1014.51
2018-09-20T01:15:14.898Z,1014.50
2018-09-20T01:16:14.745Z,1014.52
2018-09-20T01:17:14.811Z,1014.52
2018-09-20T01:18:14.708Z,1014.50
2018-09-20T01:19:14.825Z,1014.56
2018-09-20T01:20:14.660Z,1014.53
2018-09-20T01:21:14.735Z,1014.57
2018-09-20T01:22:14.625Z,1014.54
2018-09-20T01:23:14.752Z,1014.55
2018-09-20T01:24:14.584Z,1014.55
2018-09-20T01:25:14.661Z,1014.56
2018-09-20T01:26:14.537Z,1014.55
2018-09-20T01:27:14.676Z,1014.59
2018-09-20T01:28:14.495Z,1014.56
2018-09-20T01:29:14.604Z,1014.59
2018-09-20T01:30:14.453Z,1014.55
2018-09-20T01:31:14.618Z,1014.56
2018-09-20T01:32:14.411Z,1014.52
2018-09-20T01:33:14.516Z,1014.55
2018-09-20T01:34:14.369Z,1014.54
2018-09-20T01:35:14.571Z,1014.54
2018-09-20T01:36:14.331Z,1014.50
2018-09-20T01:37:14.441Z,1014.51
2018-09-20T01:38:14.289Z,1014.53
2018-09-20T01:39:14.354Z,1014.55
2018-09-20T01:40:14.246Z,1014.58
2018-09-20T01:41:14.372Z,1014.57
2018-09-20T01:42:14.205Z,1014.56
2018-09-20T01:43:14.279Z,1014.60
2018-09-20T01:44:14.159Z,1014.56
2018-09-20T01:45:14.293Z,1014.57
2018-09-20T01:46:14.122Z,1014.58
2018-09-20T01:47:14.205Z,1014.57
2018-09-20T01:48:14.076Z,1014.55
2018-09-20T01:49:14.228Z,1014.52
2018-09-20T01:50:14.035Z,1014.53
2018-09-20T01:51:14.133Z,1014.54
2018-09-20T01:52:13.991Z,1014.49
2018-09-20T01:53:14.146Z,1014.52
2018-09-20T01:54:13.949Z,1014.49
2018-09-20T01:55:14.058Z,1014.46
2018-09-20T01:56:13.911Z,1014.46
2018-09-20T01:57:14.073Z,1014.44
2018-09-20T01:58:13.872Z,1014.50
2018-09-20T01:59:13.984Z,1014.48
2018-09-20T02:00:13.821Z,1014.47
2018-09-20T02:01:13.996Z,1014.50
2018-09-20T02:02:13.784Z,1014.48
2018-09-20T02:03:13.907Z,1014.50
2018-09-20T02:04:13.742Z,1014.48
2018-09-20T02:05:13.923Z,1014.47
2018-09-20T02:06:13.699Z,1014.47
2018-09-20T02:07:13.835Z,1014.48
2018-09-20T02:08:13.659Z,1014.46
2018-09-20T02:09:13.749Z,1014.47
2018-09-20T02:10:13.613Z,1014.47
2018-09-20T02:11:13.760Z,1014.49
2018-09-20T02:12:13.571Z,1014.50
2018-09-20T02:13:13.672Z,1014.46
2018-09-20T02:14:13.529Z,1014.51
2018-09-20T02:15:13.688Z,1014.51
2018-09-20T02:16:13.486Z,1014.51
2018-09-20T02:17:13.599Z,1014.51
2018-09-20T02:18:13.444Z,1014.59
2018-09-20T02:19:13.612Z,1014.58
2018-09-20T02:20:13.400Z,1014.58
2018-09-20T02:21:13.423Z,1014.56
2018-09-20T02:22:13.356Z,1014.57
2018-09-20T02:23:13.438Z,1014.55
2018-09-20T02:24:13.317Z,1014.55
2018-09-20T02:25:13.350Z,1014.55
2018-09-20T02:26:13.276Z,1014.56
2018-09-20T02:27:13.362Z,1014.56
2018-09-20T02:28:13.233Z,1014.56
2018-09-20T02:29:13.275Z,1014.50
2018-09-20T02:30:13.192Z,1014.52
2018-09-20T02:31:13.289Z,1014.52
2018-09-20T02:32:13.146Z,1014.50
2018-09-20T02:33:13.201Z,1014.49
2018-09-20T02:34:13.104Z,1014.53
2018-09-20T02:35:13.216Z,1014.52
2018-09-20T02:36:13.061Z,1014.50
2018-09-20T02:37:13.127Z,1014.51
2018-09-20T02:38:13.018Z,1014.46
2018-09-20T02:39:13.039Z,1014.51
2018-09-20T02:40:12.981Z,1014.50
2018-09-20T02:41:13.054Z,1014.49
2018-09-20T02:42:12.936Z,1014.49
2018-09-20T02:43:12.965Z,1014.45
2018-09-20T02:44:12.892Z,1014.46
2018-09-20T02:45:12.980Z,1014.41
2018-09-20T02:46:12.855Z,1014.44
2018-09-20T02:47:12.892Z,1014.39
2018-09-20T02:48:12.813Z,1014.43
2018-09-20T02:49:12.912Z,1014.35
2018-09-20T02:50:12.762Z,1014.37
2018-09-20T02:51:12.827Z,1014.34
2018-09-20T02:52:12.724Z,1014.34
2018-09-20T02:53:12.831Z,1014.35
2018-09-20T02:54:12.682Z,1014.38
2018-09-20T02:55:12.743Z,1014.38
2018-09-20T02:56:12.638Z,1014.41
2018-09-20T02:57:12.757Z,1014.42
2018-09-20T02:58:12.587Z,1014.40
2018-09-20T02:59:12.669Z,1014.44
2018-09-20T03:00:12.560Z,1014.43
2018-09-20T03:01:12.685Z,1014.40
2018-09-20T03:02:12.513Z,1014.43
2018-09-20T03:03:12.594Z,1014.41
2018-09-20T03:04:12.469Z,1014.39
2018-09-20T03:05:12.506Z,1014.40
2018-09-20T03:06:12.435Z,1014.42
2018-09-20T03:07:12.524Z,1014.38
2018-09-20T03:08:12.379Z,1014.40
2018-09-20T03:09:12.432Z,1014.41
2018-09-20T03:10:12.337Z,1014.42
2018-09-20T03:11:12.447Z,1014.42
2018-09-20T03:12:12.285Z,1014.44
2018-09-20T03:13:12.379Z,1014.44
2018-09-20T03:14:12.254Z,1014.44
2018-09-20T03:15:12.376Z,1014.48
2018-09-20T03:16:12.205Z,1014.44
2018-09-20T03:17:12.284Z,1014.44
2018-09-20T03:18:12.173Z,1014.43
2018-09-20T03:19:12.301Z,1014.40
2018-09-20T03:20:12.122Z,1014.40
2018-09-20T03:21:12.229Z,1014.43
2018-09-20T03:22:12.093Z,1014.44
2018-09-20T03:23:12.226Z,1014.41
2018-09-20T03:24:12.046Z,1014.44
2018-09-20T03:25:12.157Z,1014.43
2018-09-20T03:26:12.006Z,1014.45
2018-09-20T03:27:12.168Z,1014.38
2018-09-20T03:28:11.971Z,1014.36
2018-09-20T03:29:12.072Z,1014.39
2018-09-20T03:30:11.956Z,1014.33
2018-09-20T03:31:11.990Z,1014.36
2018-09-20T03:32:11.869Z,1014.37
2018-09-20T03:33:12.006Z,1014.31
2018-09-20T03:34:11.831Z,1014.29
2018-09-20T03:35:11.916Z,1014.31
2018-09-20T03:36:11.785Z,1014.32
2018-09-20T03:37:11.932Z,1014.32
2018-09-20T03:38:11.735Z,1014.35
2018-09-20T03:39:11.845Z,1014.29
2018-09-20T03:40:11.705Z,1014.33
2018-09-20T03:41:11.856Z,1014.34
2018-09-20T03:42:11.652Z,1014.36
2018-09-20T03:43:11.759Z,1014.31
2018-09-20T03:44:11.611Z,1014.34
2018-09-20T03:45:11.768Z,1014.35
2018-09-20T03:46:11.571Z,1014.38
2018-09-20T03:47:11.691Z,1014.37
2018-09-20T03:48:11.525Z,1014.37
2018-09-20T03:49:11.702Z,1014.38
2018-09-20T03:50:11.482Z,1014.38
2018-09-20T03:51:11.610Z,1014.37
2018-09-20T03:52:11.439Z,1014.36
2018-09-20T03:53:11.521Z,1014.37
2018-09-20T03:54:11.397Z,1014.36
2018-09-20T03:55:11.534Z,1014.37
2018-09-20T03:56:11.349Z,1014.37
2018-09-20T03:57:11.445Z,1014.44
2018-09-20T03:58:11.313Z,1014.43
2018-09-20T03:59:11.461Z,1014.41
2018-09-20T04:00:11.265Z,1014.42
2018-09-20T04:01:11.370Z,1014.44
2018-09-20T04:02:11.227Z,1014.38
2018-09-20T04:03:11.383Z,1014.37
2018-09-20T04:04:11.186Z,1014.38
2018-09-20T04:05:11.295Z,1014.34
2018-09-20T04:06:11.140Z,1014.40
2018-09-20T04:07:11.309Z,1014.35
2018-09-20T04:08:11.095Z,1014.36
2018-09-20T04:09:11.220Z,1014.33
2018-09-20T04:10:11.054Z,1014.35
2018-09-20T04:11:11.237Z,1014.37
2018-09-20T04:12:11.010Z,1014.34
2018-09-20T04:13:11.147Z,1014.37
2018-09-20T04:14:10.969Z,1014.35
2018-09-20T04:15:11.160Z,1014.35
2018-09-20T04:16:10.924Z,1014.33
2018-09-20T04:17:11.072Z,1014.37
2018-09-20T04:18:10.877Z,1014.40
2018-09-20T04:19:10.882Z,1014.37
2018-09-20T04:20:10.840Z,1014.39
2018-09-20T04:21:10.895Z,1014.33
2018-09-20T04:22:10.798Z,1014.31
2018-09-20T04:23:10.810Z,1014.29
2018-09-20T04:24:10.752Z,1014.30
2018-09-20T04:25:10.819Z,1014.32
2018-09-20T04:26:10.709Z,1014.29
2018-09-20T04:27:10.745Z,1014.29
2018-09-20T04:28:10.667Z,1014.31
2018-09-20T04:29:10.746Z,1014.34
2018-09-20T04:30:10.623Z,1014.32
2018-09-20T04:31:10.659Z,1014.28
2018-09-20T04:32:10.581Z,1014.31
2018-09-20T04:33:10.673Z,1014.31
2018-09-20T04:34:10.538Z,1014.31
2018-09-20T04:35:10.584Z,1014.33
2018-09-20T04:36:10.488Z,1014.30
2018-09-20T04:37:10.600Z,1014.35
2018-09-20T04:38:10.449Z,1014.33
2018-09-20T04:39:10.516Z,1014.35
2018-09-20T04:40:10.410Z,1014.29
2018-09-20T04:41:10.420Z,1014.31
2018-09-20T04:42:10.364Z,1014.31
2018-09-20T04:43:10.439Z,1014.28
2018-09-20T04:44:10.321Z,1014.27
2018-09-20T04:45:10.351Z,1014.26
2018-09-20T04:46:10.277Z,1014.26
2018-09-20T04:47:10.364Z,1014.26
2018-09-20T04:48:10.235Z,1014.25
2018-09-20T04:49:10.277Z,1014.24
2018-09-20T04:54:26.139Z,1014.20
2018-09-20T04:55:25.932Z,1014.22
2018-09-20T04:57:18.923Z,1014.24
2018-09-20T04:58:18.888Z,1014.22
2018-09-20T05:00:12.048Z,1014.18
2018-09-20T05:01:11.867Z,1014.20
2018-09-20T05:03:04.732Z,1014.20
2018-09-20T05:04:04.710Z,1014.20
2018-09-20T05:05:57.660Z,1014.20
2018-09-20T05:06:57.568Z,1014.18
2018-09-20T05:08:50.512Z,1014.18
2018-09-20T05:09:50.412Z,1014.17
2018-09-20T05:11:43.464Z,1014.16
2018-09-20T05:12:43.370Z,1014.15
2018-09-20T05:13:43.348Z,1014.16
2018-09-20T05:14:43.324Z,1014.12
2018-09-20T05:15:43.373Z,1014.18
2018-09-20T05:16:43.282Z,1014.17
2018-09-20T05:17:43.279Z,1014.15
2018-09-20T05:18:43.288Z,1014.16
2018-09-20T05:19:43.210Z,1014.15
2018-09-20T05:20:43.303Z,1014.17
2018-09-20T05:21:43.172Z,1014.22
2018-09-20T05:22:43.207Z,1014.19
2018-09-20T05:23:43.132Z,1014.20
2018-09-20T05:24:43.123Z,1014.23
2018-09-20T05:25:43.080Z,1014.24
2018-09-20T05:26:43.141Z,1014.27
2018-09-20T05:27:43.038Z,1014.29
2018-09-20T05:28:43.049Z,1014.28
2018-09-20T05:29:43.057Z,1014.29
2018-09-20T05:30:42.979Z,1014.30
2018-09-20T05:31:43.070Z,1014.30
2018-09-20T05:32:42.928Z,1014.30
2018-09-20T05:33:42.978Z,1014.33
2018-09-20T05:34:43.912Z,1014.31
2018-09-20T05:35:42.873Z,1014.30
2018-09-20T05:36:42.901Z,1014.23
2018-09-20T05:37:42.829Z,1014.25
2018-09-20T05:38:42.907Z,1014.23
2018-09-20T05:39:42.782Z,1014.24
2018-09-20T05:40:42.825Z,1014.23
2018-09-20T05:41:42.740Z,1014.23
2018-09-20T05:42:42.738Z,1014.19
2018-09-20T05:43:42.699Z,1014.19
2018-09-20T05:44:42.747Z,1014.20
2018-09-20T05:45:42.646Z,1014.22
2018-09-20T05:46:42.657Z,1014.21
2018-09-20T05:47:42.614Z,1014.24
2018-09-20T05:48:42.679Z,1014.29
2018-09-20T05:49:42.560Z,1014.28
2018-09-20T05:50:42.562Z,1014.32
2018-09-20T05:51:42.522Z,1014.30
2018-09-20T05:52:42.600Z,1014.27
2018-09-20T05:53:42.468Z,1014.29
2018-09-20T05:54:42.508Z,1014.33
2018-09-20T05:55:42.518Z,1014.34
2018-09-20T05:56:42.419Z,1014.32
2018-09-20T05:57:42.438Z,1014.35
2018-09-20T05:58:42.372Z,1014.36
2018-09-20T05:59:42.459Z,1014.39
2018-09-20T06:00:42.329Z,1014.36
2018-09-20T06:01:42.368Z,1014.37
2018-09-20T06:02:42.288Z,1014.43
2018-09-20T06:03:42.382Z,1014.43
2018-09-20T06:04:42.237Z,1014.41
2018-09-20T06:05:42.332Z,1014.39
2018-09-20T06:06:42.209Z,1014.47
2018-09-20T06:07:42.202Z,1014.44
2018-09-20T06:08:42.153Z,1014.48
2018-09-20T06:09:42.218Z,1014.48
2018-09-20T06:10:42.117Z,1014.48
2018-09-20T06:11:42.089Z,1014.45
2018-09-20T06:12:42.075Z,1014.49
2018-09-20T06:13:42.139Z,1014.49
2018-09-20T06:14:42.019Z,1014.50
2018-09-20T06:15:42.061Z,1014.45
2018-09-20T06:16:42.058Z,1014.46
2018-09-20T06:17:41.957Z,1014.42
2018-09-20T06:18:42.080Z,1014.41
2018-09-20T06:19:41.917Z,1014.44
2018-09-20T06:20:41.994Z,1014.35
2018-09-20T06:21:41.923Z,1014.35
2018-09-20T06:22:41.852Z,1014.35
2018-09-20T06:23:41.897Z,1014.37
2018-09-20T06:24:41.809Z,1014.37
2018-09-20T06:25:41.924Z,1014.34
2018-09-20T06:26:41.762Z,1014.37
2018-09-20T06:27:41.771Z,1014.36
2018-09-20T06:28:41.842Z,1014.37
2018-09-20T06:29:41.701Z,1014.35
2018-09-20T06:30:41.748Z,1014.33
2018-09-20T06:31:41.662Z,1014.32
2018-09-20T06:32:41.645Z,1014.35
2018-09-20T06:33:41.620Z,1014.44
2018-09-20T06:34:41.674Z,1014.38
2018-09-20T06:35:41.568Z,1014.38
2018-09-20T06:36:41.690Z,1014.35
2018-09-20T06:37:41.549Z,1014.38
2018-09-20T06:38:41.598Z,1014.38
2018-09-20T06:39:41.488Z,1014.40
2018-09-20T06:40:41.612Z,1014.39
2018-09-20T06:41:41.447Z,1014.37
2018-09-20T06:42:41.537Z,1014.41
2018-09-20T06:43:41.529Z,1014.42
2018-09-20T06:44:41.377Z,1014.44
2018-09-20T06:45:41.438Z,1014.39
2018-09-20T06:46:41.338Z,1014.37
2018-09-20T06:47:41.470Z,1014.44
2018-09-20T06:48:41.361Z,1014.42
2018-09-20T06:49:41.272Z,1014.42
2018-09-20T06:50:41.379Z,1014.41
2018-09-20T06:51:41.243Z,1014.48
2018-09-20T06:52:41.288Z,1014.47
2018-09-20T06:53:41.188Z,1014.40
2018-09-20T06:54:41.297Z,1014.38
2018-09-20T06:55:41.142Z,1014.40
2018-09-20T06:56:41.295Z,1014.38
2018-09-20T06:57:41.103Z,1014.34
2018-09-20T06:58:41.158Z,1014.35
2018-09-20T06:59:41.048Z,1014.38
2018-09-20T07:00:41.143Z,1014.35
2018-09-20T07:01:41.028Z,1014.39
2018-09-20T07:02:41.149Z,1014.39
2018-09-20T07:03:40.969Z,1014.37
2018-09-20T07:04:40.951Z,1014.35
2018-09-20T07:05:40.929Z,1014.38
2018-09-20T07:06:41.083Z,1014.36
2018-09-20T07:07:40.892Z,1014.31
2018-09-20T07:08:40.997Z,1014.33
2018-09-20T07:09:40.842Z,1014.37
2018-09-20T07:10:41.027Z,1014.36
2018-09-20T07:11:40.808Z,1014.36
2018-09-20T07:12:40.917Z,1014.35
2018-09-20T07:13:40.799Z,1014.36
2018-09-20T07:14:40.828Z,1014.38
2018-09-20T07:15:40.719Z,1014.37
2018-09-20T07:16:40.741Z,1014.36
2018-09-20T07:17:40.678Z,1014.40
2018-09-20T07:18:40.762Z,1014.38
2018-09-20T07:19:40.675Z,1014.41
2018-09-20T07:20:40.614Z,1014.46
2018-09-20T07:21:40.672Z,1014.48
2018-09-20T07:22:40.572Z,1014.46
2018-09-20T07:23:40.593Z,1014.50
2018-09-20T07:24:40.528Z,1014.49
2018-09-20T07:25:40.599Z,1014.48
2018-09-20T07:26:40.512Z,1014.48
2018-09-20T07:27:40.468Z,1014.48
2018-09-20T07:28:40.519Z,1014.49
2018-09-20T07:29:40.422Z,1014.51
2018-09-20T07:30:40.408Z,1014.51
2018-09-20T07:31:40.443Z,1014.55
2018-09-20T07:32:40.416Z,1014.54
2018-09-20T07:33:40.449Z,1014.54
2018-09-20T07:34:40.322Z,1014.57
2018-09-20T07:35:40.305Z,1014.61
2018-09-20T07:36:40.281Z,1014.61
2018-09-20T07:37:40.382Z,1014.57
2018-09-20T07:38:40.239Z,1014.57
2018-09-20T07:39:40.391Z,1014.53
2018-09-20T07:40:40.204Z,1014.47
2018-09-20T07:41:40.317Z,1014.55
2018-09-20T07:42:40.158Z,1014.54
2018-09-20T07:43:40.391Z,1014.61
2018-09-20T07:44:40.122Z,1014.58
2018-09-20T07:45:40.237Z,1014.56
2018-09-20T07:46:40.081Z,1014.60
2018-09-20T07:47:40.248Z,1014.67
2018-09-20T07:48:40.072Z,1014.64
2018-09-20T07:49:40.052Z,1014.60
2018-09-20T07:50:39.988Z,1014.65
2018-09-20T07:51:39.981Z,1014.58
2018-09-20T07:52:39.947Z,1014.62
2018-09-20T07:53:40.018Z,1014.58
2018-09-20T07:54:39.931Z,1014.59
2018-09-20T07:55:39.989Z,1014.57
2018-09-20T07:56:39.897Z,1014.59
2018-09-20T07:57:39.909Z,1014.55
2018-09-20T07:58:39.831Z,1014.56
2018-09-20T07:59:39.921Z,1014.50
2018-09-20T08:00:39.798Z,1014.52
2018-09-20T08:01:39.871Z,1014.54
2018-09-20T08:02:39.747Z,1014.53
2018-09-20T08:03:39.848Z,1014.52
2018-09-20T08:04:39.719Z,1014.48
2018-09-20T08:05:39.757Z,1014.51
2018-09-20T08:06:39.671Z,1014.50
2018-09-20T08:07:39.657Z,1014.51
2018-09-20T08:08:39.622Z,1014.54
2018-09-20T08:09:39.698Z,1014.52
2018-09-20T08:10:39.604Z,1014.52
2018-09-20T08:11:39.732Z,1014.48
2018-09-20T08:12:39.565Z,1014.47
2018-09-20T08:13:39.608Z,1014.43
2018-09-20T08:14:39.518Z,1014.46
2018-09-20T08:15:39.632Z,1014.48
2018-09-20T08:16:39.478Z,1014.44
2018-09-20T08:17:39.539Z,1014.48
2018-09-20T08:18:39.436Z,1014.51
2018-09-20T08:19:39.409Z,1014.48
2018-09-20T08:20:39.462Z,1014.48
2018-09-20T08:21:39.479Z,1014.49
2018-09-20T08:22:39.467Z,1014.54
2018-09-20T08:23:39.341Z,1014.50
2018-09-20T08:24:39.378Z,1014.48
2018-09-20T08:25:39.301Z,1014.50
2018-09-20T08:26:39.404Z,1014.53
2018-09-20T08:27:39.297Z,1014.53
2018-09-20T08:28:39.269Z,1014.50
2018-09-20T08:29:39.225Z,1014.57
2018-09-20T08:30:39.322Z,1014.50
2018-09-20T08:31:39.188Z,1014.51
2018-09-20T08:32:39.228Z,1014.51
2018-09-20T08:33:39.138Z,1014.51
2018-09-20T08:34:39.121Z,1014.51
2018-09-20T08:35:39.102Z,1014.47
2018-09-20T08:36:39.161Z,1014.54
2018-09-20T08:37:39.152Z,1014.49
2018-09-20T08:38:39.170Z,1014.53
2018-09-20T08:39:39.024Z,1014.55
2018-09-20T08:40:39.010Z,1014.49
2018-09-20T08:41:39.090Z,1014.54
2018-09-20T08:42:38.968Z,1014.53
2018-09-20T08:43:39.113Z,1014.49
2018-09-20T08:44:38.928Z,1014.53
2018-09-20T08:45:38.907Z,1014.63
2018-09-20T08:46:39.025Z,1014.55
2018-09-20T08:47:38.877Z,1014.64
2018-09-20T08:48:38.943Z,1014.53
2018-09-20T08:49:38.839Z,1014.58
2018-09-20T08:50:38.818Z,1014.56
2018-09-20T08:51:38.800Z,1014.53
2018-09-20T08:52:38.861Z,1014.52
2018-09-20T08:53:38.758Z,1014.47
2018-09-20T08:54:38.876Z,1014.51
2018-09-20T08:55:38.729Z,1014.62
2018-09-20T08:56:38.723Z,1014.55
2018-09-20T08:57:38.805Z,1014.56
2018-09-20T08:58:38.668Z,1014.53
2018-09-20T08:59:38.822Z,1014.53
2018-09-20T09:00:38.632Z,1014.60
2018-09-20T09:01:38.599Z,1014.59
2018-09-20T09:02:38.600Z,1014.64
2018-09-20T09:03:38.741Z,1014.62
2018-09-20T09:04:38.579Z,1014.60
2018-09-20T09:05:38.647Z,1014.62
2018-09-20T09:06:38.669Z,1014.58
2018-09-20T09:07:38.493Z,1014.57
2018-09-20T09:08:38.580Z,1014.62
2018-09-20T09:09:38.464Z,1014.58
2018-09-20T09:10:38.587Z,1014.54
2018-09-20T09:11:38.421Z,1014.50
2018-09-20T09:12:38.402Z,1014.45
2018-09-20T09:13:38.498Z,1014.48
2018-09-20T09:14:38.358Z,1014.62
2018-09-20T09:15:38.521Z,1014.71
2018-09-20T09:16:38.333Z,1014.81
2018-09-20T09:17:38.318Z,1014.67
2018-09-20T09:18:38.438Z,1014.83
2018-09-20T09:19:38.305Z,1014.75
2018-09-20T09:20:38.455Z,1014.81
2018-09-20T09:21:38.238Z,1014.60
2018-09-20T09:22:38.220Z,1014.52
2018-09-20T09:23:38.200Z,1014.52
2018-09-20T09:24:38.383Z,1014.59
2018-09-20T09:25:38.172Z,1014.62
2018-09-20T09:26:38.291Z,1014.70
2018-09-20T09:27:38.132Z,1014.62
2018-09-20T09:28:38.164Z,1014.77
2018-09-20T09:29:38.217Z,1014.72
2018-09-20T09:30:38.078Z,1014.68
2018-09-20T09:31:38.222Z,1014.67
2018-09-20T09:32:38.053Z,1014.70
2018-09-20T09:33:38.031Z,1014.68
2018-09-20T09:34:38.144Z,1014.76
2018-09-20T09:35:37.997Z,1014.65
2018-09-20T09:36:38.051Z,1014.90
2018-09-20T09:37:37.960Z,1014.86
2018-09-20T09:38:37.939Z,1014.79
2018-09-20T09:39:38.075Z,1014.78
2018-09-20T09:40:37.908Z,1014.66
2018-09-20T09:41:37.991Z,1014.71
2018-09-20T09:42:37.876Z,1014.60
2018-09-20T09:43:37.858Z,1014.67
2018-09-20T09:44:37.841Z,1014.67
2018-09-20T09:45:38.013Z,1014.59
2018-09-20T09:46:37.808Z,1014.57
2018-09-20T09:47:37.819Z,1014.61
2018-09-20T09:48:37.784Z,1014.59
2018-09-20T09:49:37.758Z,1014.54
2018-09-20T09:50:37.840Z,1014.54
2018-09-20T09:51:37.729Z,1014.64
2018-09-20T09:52:37.756Z,1014.42
2018-09-20T09:53:37.707Z,1014.67
2018-09-20T09:54:37.694Z,1014.62
2018-09-20T09:55:37.778Z,1014.85
2018-09-20T09:56:37.647Z,1015.10
2018-09-20T09:57:37.691Z,1014.90
2018-09-20T09:58:37.618Z,1014.61
2018-09-20T09:59:37.622Z,1015.31
2018-09-20T10:00:37.604Z,1014.87
2018-09-20T10:01:37.611Z,1015.21
2018-09-20T10:02:37.578Z,1015.56
2018-09-20T10:03:37.631Z,1015.34
2018-09-20T10:04:37.525Z,1015.01
2018-09-20T10:05:37.638Z,1015.63
2018-09-20T10:06:37.492Z,1015.69
2018-09-20T10:07:37.563Z,1015.61
2018-09-20T10:08:37.457Z,1015.30
2018-09-20T10:09:37.570Z,1015.21
2018-09-20T10:10:37.472Z,1015.40
2018-09-20T10:11:37.408Z,1015.29
2018-09-20T10:12:37.488Z,1014.55
2018-09-20T10:13:37.431Z,1015.02
2018-09-20T10:14:37.507Z,1015.10
2018-09-20T10:15:37.411Z,1015.46
2018-09-20T10:16:37.338Z,1015.29
2018-09-20T10:17:37.420Z,1014.95
2018-09-20T10:18:37.298Z,1014.94
2018-09-20T10:19:37.438Z,1015.13
2018-09-20T10:20:37.277Z,1015.34
2018-09-20T10:21:37.347Z,1015.20
2018-09-20T10:22:37.243Z,1014.59
2018-09-20T10:23:37.359Z,1014.85
2018-09-20T10:24:37.208Z,1014.76
2018-09-20T10:25:37.271Z,1014.47
2018-09-20T10:26:37.182Z,1014.52
2018-09-20T10:27:37.288Z,1014.42
2018-09-20T10:28:37.257Z,1014.25
2018-09-20T10:29:37.209Z,1014.88
2018-09-20T10:30:37.132Z,1014.79
2018-09-20T10:31:37.099Z,1014.42
2018-09-20T10:32:37.218Z,1014.27
2018-09-20T10:33:37.083Z,1014.33
2018-09-20T10:34:37.129Z,1014.61
2018-09-20T10:35:37.048Z,1014.67
2018-09-20T10:36:37.036Z,1014.64
2018-09-20T10:37:37.008Z,1014.25
2018-09-20T10:38:37.158Z,1014.30
2018-09-20T10:39:37.002Z,1014.68
2018-09-20T10:40:37.073Z,1014.72
2018-09-20T10:41:36.947Z,1014.43
2018-09-20T10:42:36.931Z,1014.59
2018-09-20T10:43:37.102Z,1014.59
2018-09-20T10:44:36.900Z,1014.58
2018-09-20T10:45:37.007Z,1014.52
2018-09-20T10:46:36.871Z,1014.10
2018-09-20T10:47:36.859Z,1014.42
2018-09-20T10:48:36.840Z,1014.13
2018-09-20T10:49:36.929Z,1014.13
2018-09-20T10:50:36.810Z,1014.14
2018-09-20T10:51:36.949Z,1014.02
2018-09-20T10:52:36.952Z,1014.04
2018-09-20T10:53:36.769Z,1014.09
2018-09-20T10:54:36.898Z,1014.00
2018-09-20T10:55:36.741Z,1014.03
2018-09-20T10:56:36.878Z,1014.05
2018-09-20T10:57:36.783Z,1014.17
2018-09-20T10:58:36.688Z,1014.08
2018-09-20T10:59:36.799Z,1014.12
2018-09-20T11:00:36.691Z,1014.06
2018-09-20T11:01:36.808Z,1014.02
2018-09-20T11:08:33.207Z,1013.96
2018-09-20T11:09:27.115Z,1014.05
2018-09-20T11:11:20.132Z,1014.16
2018-09-20T11:12:20.041Z,1014.09
2018-09-20T11:14:13.123Z,1013.97
2018-09-20T11:15:12.992Z,1014.04
2018-09-20T11:17:05.930Z,1014.06
2018-09-20T11:18:05.848Z,1014.12
2018-09-20T11:19:05.837Z,1014.05
2018-09-20T11:20:05.928Z,1014.02
2018-09-20T11:21:05.802Z,1014.02
2018-09-20T11:22:05.841Z,1014.02
2018-09-20T11:23:05.771Z,1013.93
2018-09-20T11:24:05.758Z,1013.98
2018-09-20T11:25:05.758Z,1014.00
2018-09-20T11:26:05.722Z,1014.03
2018-09-20T11:27:05.774Z,1014.10
2018-09-20T11:28:05.694Z,1014.02
2018-09-20T11:29:05.677Z,1014.05
2018-09-20T11:30:05.688Z,1014.12
2018-09-20T11:31:05.648Z,1013.92
2018-09-20T11:32:06.729Z,1013.94
2018-09-20T11:33:05.612Z,1014.03
2018-09-20T11:34:05.599Z,1014.03
2018-09-20T11:35:05.582Z,1014.05
2018-09-20T11:36:05.628Z,1013.88
2018-09-20T11:37:05.550Z,1013.86
2018-09-20T11:38:05.649Z,1013.78
2018-09-20T11:39:05.551Z,1013.87
2018-09-20T11:40:05.507Z,1013.92
2018-09-20T11:41:05.561Z,1013.95
2018-09-20T11:42:05.481Z,1013.94
2018-09-20T11:43:05.478Z,1013.87
2018-09-20T11:44:05.450Z,1013.90
2018-09-20T11:45:05.441Z,1013.96
2018-09-20T11:46:05.498Z,1013.89
2018-09-20T11:47:05.399Z,1013.86
2018-09-20T11:48:05.413Z,1013.88
2018-09-20T11:49:05.368Z,1013.84
2018-09-20T11:50:05.366Z,1013.82
2018-09-20T11:51:05.348Z,1013.96
2018-09-20T11:52:06.358Z,1013.74
2018-09-20T11:53:05.312Z,1013.88
2018-09-20T11:54:05.355Z,1013.90
2018-09-20T11:55:05.359Z,1013.99
2018-09-20T11:56:05.275Z,1013.97
2018-09-20T11:57:05.269Z,1013.81
2018-09-20T11:58:05.239Z,1013.82
2018-09-20T11:59:05.279Z,1013.79
2018-09-20T12:00:05.201Z,1013.74
2018-09-20T12:01:05.301Z,1013.77
2018-09-20T12:02:05.307Z,1013.78
2018-09-20T12:03:05.208Z,1013.70
2018-09-20T12:04:05.138Z,1013.68
2018-09-20T12:05:05.237Z,1013.73
2018-09-20T12:06:05.115Z,1013.66
2018-09-20T12:07:05.147Z,1013.73
2018-09-20T12:08:05.093Z,1013.70
2018-09-20T12:09:06.188Z,1013.65
2018-09-20T12:10:05.048Z,1013.63
2018-09-20T12:11:05.037Z,1013.49
2018-09-20T12:12:05.077Z,1013.59
2018-09-20T12:13:04.997Z,1013.61
2018-09-20T12:14:05.078Z,1013.57
2018-09-20T12:15:04.969Z,1013.55
2018-09-20T12:16:04.960Z,1013.54
2018-09-20T12:17:04.947Z,1013.62
2018-09-20T12:18:05.018Z,1013.56
2018-09-20T12:19:04.908Z,1013.53
2018-09-20T12:20:04.972Z,1013.49
2018-09-20T12:21:04.878Z,1013.53
2018-09-20T12:22:04.870Z,1013.56
2018-09-20T12:23:04.945Z,1013.49